الصفحة الرئيسية
METAR-TAF:

METAR-TAF

مطار :

Taree, أستراليا

دائرة عرض: 31-53-19S, خط طول: 152-30-50E, ارتفاع: 12 متر

مراقبة الطقس الحالي

تاريخ ووقت الإصدار 42 دقيقة قبل الساعة 17:00UTC
ريح 6 عقدة من الشمال الغربي
درجة الحرارة 10°درجة مئوية
الرطوبة 62%
ضغط 1016 hPa
الرؤية 10 كم أو أكثر

METAR: YTRE 221700Z AUTO 31006KT 9999 // NCD 10/03 Q1016

زمن: 03:42 (17:42 UTC)

توقعات

تاريخ ووقت الإصدار 4ساعات و 17 دقيقة قبل الساعة 13:25UTC
التوقعات صالحة من22 الساعة 14 UTC إلى 23 الساعة 02 UTC
ريح 8 عقدة من الغرب
الرؤية 10 كم أو أكثر
الغيوم لا تقل 1500 م ولا وجود لمزنة ركامية السحاب الأسود

TAF: YTRE 221325Z 2214/2302 27008KT CAVOK

أرصاد الطقس والتوقعات من أكثر من 4000 مطار (تقارير الطقس للمطار METAR والتنبؤ بالطقس بالمطارTAF).

المحطات المتاحة هي النقط الصفراء والحمراء على الخريطة.

حرك المؤشر فوق النقطة لمعرفة اسم المحطة.

ثم انقر لمعرفة أرصاد وتوقعات الطقس.

لتغيير الخارطة: اضغط على الأزرار الخضراء مع رمز الصليب الأسود للتكبير. على الزر الأخضر مع شرطة للتصغير، أو على الأسهم الخضراء للخرائط المجاورة.


METAR-TAF: